Time;durP1;ratioP1;P1;durP2;ratioP2;P2;SDS_P1;SDS_P2;PMS_P1;PMS_P2;Temp;Humidity;BMP_temperature;BMP_pressure;BME280_temperature;BME280_humidity;BME280_pressure;Samples;Min_cycle;Max_cycle;Signal;HPM_P1;HPM_P2
2021/09/03 00:00:04;;;;;;;2.45;0.68;;;13.70;99.90;;;;;;4415791;32;20066;-78
2021/09/03 00:02:30;;;;;;;5.30;2.08;;;13.80;99.90;;;;;;4416159;32;20082;-78
2021/09/03 00:04:55;;;;;;;1.62;0.93;;;13.80;99.90;;;;;;4416208;32;20064;-78
2021/09/03 00:07:21;;;;;;;1.05;0.80;;;13.80;99.90;;;;;;4415968;32;20527;-78
2021/09/03 00:09:46;;;;;;;1.95;1.02;;;13.80;99.90;;;;;;4415812;32;20078;-78
2021/09/03 00:12:12;;;;;;;0.55;0.55;;;13.80;99.90;;;;;;4416029;32;20065;-78
2021/09/03 00:14:37;;;;;;;7.10;0.80;;;13.70;99.90;;;;;;4415822;32;20085;-79
2021/09/03 00:17:03;;;;;;;1.20;0.90;;;13.60;99.90;;;;;;4416002;32;20094;-78
2021/09/03 00:19:29;;;;;;;1.37;0.90;;;13.70;99.90;;;;;;4416111;32;20401;-78
2021/09/03 00:21:55;;;;;;;0.95;0.82;;;13.60;99.90;;;;;;4417628;32;20068;-79
2021/09/03 00:24:21;;;;;;;0.70;0.70;;;13.60;99.90;;;;;;4416961;32;20061;-79
2021/09/03 00:26:47;;;;;;;1.25;0.88;;;13.50;99.90;;;;;;4416635;32;20066;-78
2021/09/03 00:29:13;;;;;;;0.60;0.60;;;13.70;99.90;;;;;;4420828;32;20401;-78
2021/09/03 00:31:38;;;;;;;0.93;0.93;;;13.70;99.90;;;;;;4431157;32;20513;-78
2021/09/03 00:34:04;;;;;;;1.05;0.93;;;13.70;99.90;;;;;;4431897;32;20169;-78
2021/09/03 00:36:29;;;;;;;1.75;1.17;;;13.50;99.90;;;;;;4417550;32;20074;-78
2021/09/03 00:38:55;;;;;;;0.62;0.62;;;13.50;99.90;;;;;;4416644;32;20114;-79
2021/09/03 00:41:21;;;;;;;0.40;0.40;;;13.60;99.90;;;;;;4416917;32;20076;-79
2021/09/03 00:43:46;;;;;;;1.15;1.00;;;13.60;99.90;;;;;;4416147;32;20110;-78
2021/09/03 00:46:12;;;;;;;1.62;1.25;;;13.50;99.90;;;;;;4416105;32;20058;-78
2021/09/03 00:48:37;;;;;;;0.43;0.43;;;13.50;99.90;;;;;;4416112;32;20585;-78
2021/09/03 00:51:03;;;;;;;0.40;0.40;;;13.60;99.90;;;;;;4421167;32;20081;-80
2021/09/03 00:53:30;;;;;;;0.80;0.80;;;13.60;99.90;;;;;;4430979;32;20072;-78
2021/09/03 00:55:56;;;;;;;0.60;0.60;;;13.50;99.90;;;;;;4431364;32;20077;-78
2021/09/03 00:58:22;;;;;;;0.50;0.50;;;13.50;99.90;;;;;;4432569;32;20062;-79
2021/09/03 01:00:49;;;;;;;1.87;1.23;;;13.50;99.90;;;;;;4431308;32;20108;-79
2021/09/03 01:03:15;;;;;;;0.75;0.75;;;13.40;99.90;;;;;;4430859;32;20169;-78
2021/09/03 01:05:42;;;;;;;0.50;0.50;;;13.40;99.90;;;;;;4432693;32;20062;-80
2021/09/03 01:08:08;;;;;;;0.50;0.50;;;13.50;99.90;;;;;;4431452;32;20069;-79
2021/09/03 01:10:34;;;;;;;0.73;0.62;;;13.50;99.90;;;;;;4432231;32;20395;-77
2021/09/03 01:13:00;;;;;;;5.85;2.08;;;13.40;99.90;;;;;;4430388;32;20090;-78
2021/09/03 01:15:26;;;;;;;20.12;1.17;;;13.40;99.90;;;;;;4431792;32;20112;-78
2021/09/03 01:17:52;;;;;;;1.02;0.93;;;13.40;99.90;;;;;;4431813;32;20408;-79
2021/09/03 01:20:18;;;;;;;2.90;1.48;;;13.40;99.90;;;;;;4431206;32;20131;-79
2021/09/03 01:22:43;;;;;;;1.75;0.90;;;13.40;99.90;;;;;;4430957;32;20137;-79
2021/09/03 01:25:09;;;;;;;0.55;0.55;;;13.50;99.90;;;;;;4431235;32;20073;-78
2021/09/03 01:27:35;;;;;;;0.95;0.70;;;13.40;99.90;;;;;;4416684;32;20137;-78
2021/09/03 01:30:01;;;;;;;0.70;0.70;;;13.30;99.90;;;;;;4416189;32;20077;-78
2021/09/03 01:32:27;;;;;;;0.70;0.65;;;13.20;99.90;;;;;;4415556;32;20522;-78
2021/09/03 01:34:52;;;;;;;0.50;0.50;;;13.20;99.90;;;;;;4415422;32;20086;-78
2021/09/03 01:37:18;;;;;;;0.60;0.60;;;13.20;99.90;;;;;;4414947;32;20114;-78
2021/09/03 01:39:43;;;;;;;0.60;0.60;;;13.20;99.90;;;;;;4415491;32;20080;-78
2021/09/03 01:42:09;;;;;;;0.90;0.80;;;13.30;99.90;;;;;;4415444;32;20448;-78
2021/09/03 01:44:34;;;;;;;5.43;1.33;;;13.40;99.90;;;;;;4415003;32;20117;-79
2021/09/03 01:47:00;;;;;;;1.15;1.00;;;13.40;99.90;;;;;;4415329;32;20083;-79
2021/09/03 01:49:25;;;;;;;0.37;0.37;;;13.30;99.90;;;;;;4416104;32;20499;-78
2021/09/03 01:51:51;;;;;;;1.87;0.60;;;13.20;99.90;;;;;;4414981;32;20140;-77
2021/09/03 01:54:17;;;;;;;1.27;1.17;;;13.20;99.90;;;;;;4414523;32;20519;-77
2021/09/03 01:56:43;;;;;;;0.68;0.55;;;13.20;99.90;;;;;;4414925;32;20607;-78
2021/09/03 01:59:08;;;;;;;0.40;0.40;;;13.20;99.90;;;;;;4415070;32;20073;-78
2021/09/03 02:01:34;;;;;;;10.43;0.80;;;13.10;99.90;;;;;;4416291;32;20062;-78
2021/09/03 02:03:59;;;;;;;2.50;0.75;;;13.10;99.90;;;;;;4415534;32;20112;-78
2021/09/03 02:06:24;;;;;;;1.23;0.93;;;13.20;99.90;;;;;;4415498;32;20066;-77
2021/09/03 02:08:50;;;;;;;25.48;2.08;;;13.10;99.90;;;;;;4414709;32;20089;-78
2021/09/03 02:11:15;;;;;;;0.52;0.52;;;13.10;99.90;;;;;;4415297;32;20057;-78
2021/09/03 02:13:41;;;;;;;0.75;0.75;;;13.10;99.90;;;;;;4414905;32;20066;-79
2021/09/03 02:16:07;;;;;;;2.45;0.60;;;13.10;99.90;;;;;;4415686;32;20097;-79
2021/09/03 02:18:32;;;;;;;1.10;1.00;;;13.20;99.90;;;;;;4414912;32;20412;-78
2021/09/03 02:20:59;;;;;;;0.98;0.65;;;13.10;99.90;;;;;;4414599;32;20069;-77
2021/09/03 02:23:25;;;;;;;0.68;0.60;;;13.10;99.90;;;;;;4415059;32;20492;-78
2021/09/03 02:25:51;;;;;;;1.10;0.57;;;13.10;99.90;;;;;;4414988;32;20082;-78
2021/09/03 02:28:18;;;;;;;0.90;0.50;;;13.10;99.90;;;;;;4414997;32;20534;-78
2021/09/03 02:30:44;;;;;;;0.95;0.65;;;13.10;99.90;;;;;;4415237;32;20108;-78
2021/09/03 02:33:11;;;;;;;10.52;1.10;;;13.00;99.90;;;;;;4415152;32;20062;-78
2021/09/03 02:35:37;;;;;;;0.95;0.80;;;13.00;99.90;;;;;;4422751;32;20066;-77
2021/09/03 02:38:02;;;;;;;0.65;0.65;;;12.90;99.90;;;;;;4430358;32;20112;-78
2021/09/03 02:40:29;;;;;;;1.27;0.88;;;13.00;99.90;;;;;;4430954;32;20120;-78
2021/09/03 02:42:55;;;;;;;1.27;0.57;;;12.90;99.90;;;;;;4429406;32;20073;-78
2021/09/03 02:45:21;;;;;;;0.75;0.73;;;12.90;99.90;;;;;;4430054;32;20077;-78
2021/09/03 02:47:46;;;;;;;0.50;0.50;;;12.90;99.90;;;;;;4429935;32;20497;-79
2021/09/03 02:50:12;;;;;;;1.08;0.90;;;12.90;99.90;;;;;;4430059;32;20077;-79
2021/09/03 02:52:38;;;;;;;1.27;0.70;;;13.00;99.90;;;;;;4430092;32;20061;-77
2021/09/03 02:55:04;;;;;;;0.70;0.70;;;12.90;99.90;;;;;;4430093;32;20053;-80
2021/09/03 02:57:30;;;;;;;1.30;1.10;;;12.80;99.90;;;;;;4430232;32;20061;-78
2021/09/03 02:59:55;;;;;;;0.30;0.30;;;12.70;99.90;;;;;;4429546;32;20625;-78
2021/09/03 03:02:21;;;;;;;1.00;1.00;;;12.70;99.90;;;;;;4429526;32;20432;-77
2021/09/03 03:04:47;;;;;;;6.62;1.12;;;12.70;99.90;;;;;;4429608;32;20073;-77
2021/09/03 03:07:12;;;;;;;0.65;0.62;;;12.60;99.90;;;;;;4429667;32;20108;-78
2021/09/03 03:09:38;;;;;;;0.70;0.70;;;12.70;99.90;;;;;;4429445;32;20533;-77
2021/09/03 03:12:04;;;;;;;0.50;0.50;;;12.70;99.90;;;;;;4431120;32;20114;-78
2021/09/03 03:14:33;;;;;;;0.52;0.52;;;12.70;99.90;;;;;;4415367;32;20424;-77
2021/09/03 03:17:00;;;;;;;1.10;0.85;;;12.70;99.90;;;;;;4429441;32;20074;-78
2021/09/03 03:19:26;;;;;;;0.57;0.55;;;12.80;99.90;;;;;;4429810;32;20061;-80
2021/09/03 03:21:52;;;;;;;1.73;1.12;;;12.90;99.90;;;;;;4430689;32;20073;-77
2021/09/03 03:24:18;;;;;;;0.43;0.43;;;12.90;99.90;;;;;;4429032;32;20118;-77
2021/09/03 03:26:44;;;;;;;0.73;0.68;;;13.00;99.90;;;;;;4430061;32;20503;-78
2021/09/03 03:29:09;;;;;;;3.92;0.70;;;12.90;99.90;;;;;;4429428;32;20427;-78
2021/09/03 03:31:35;;;;;;;0.68;0.68;;;12.70;99.90;;;;;;4430326;32;20078;-77
2021/09/03 03:34:01;;;;;;;0.62;0.62;;;12.70;99.90;;;;;;4429989;32;20433;-78
2021/09/03 03:36:27;;;;;;;0.60;0.60;;;12.80;99.90;;;;;;4429518;32;20124;-78
2021/09/03 03:38:52;;;;;;;1.35;0.98;;;12.80;99.90;;;;;;4430270;32;20072;-78
2021/09/03 03:41:18;;;;;;;0.52;0.52;;;12.80;99.90;;;;;;4431188;32;20487;-78
2021/09/03 03:43:44;;;;;;;0.57;0.57;;;12.90;99.90;;;;;;4429623;32;20123;-78
2021/09/03 03:46:10;;;;;;;1.27;1.10;;;12.80;99.90;;;;;;4432418;32;20058;-78
2021/09/03 03:48:35;;;;;;;0.40;0.40;;;12.80;99.90;;;;;;4431538;32;20479;-78
2021/09/03 03:51:01;;;;;;;0.65;0.60;;;12.70;99.90;;;;;;4431460;32;20069;-78
2021/09/03 03:53:26;;;;;;;1.85;1.10;;;12.60;99.90;;;;;;4432393;32;20534;-78
2021/09/03 03:55:52;;;;;;;3.50;0.95;;;12.70;99.90;;;;;;4431930;32;20467;-78
2021/09/03 03:58:19;;;;;;;2.85;1.08;;;12.70;99.90;;;;;;4433212;32;20517;-79
2021/09/03 04:00:45;;;;;;;1.45;0.50;;;12.50;99.90;;;;;;4431641;32;20058;-78
2021/09/03 04:03:10;;;;;;;0.65;0.50;;;12.60;99.90;;;;;;4431927;32;20554;-78
2021/09/03 04:05:36;;;;;;;1.05;0.62;;;12.60;99.90;;;;;;4432047;32;20077;-78
2021/09/03 04:08:02;;;;;;;0.47;0.47;;;12.50;99.90;;;;;;4431681;32;20078;-79
2021/09/03 04:10:27;;;;;;;0.70;0.65;;;12.50;99.90;;;;;;4431653;32;20070;-80
2021/09/03 04:12:53;;;;;;;0.43;0.43;;;12.60;99.90;;;;;;4432489;32;20082;-77
2021/09/03 04:15:18;;;;;;;22.92;1.10;;;12.60;99.90;;;;;;4431561;32;20152;-77
2021/09/03 04:17:44;;;;;;;1.12;0.70;;;12.60;99.90;;;;;;4432290;32;20069;-78
2021/09/03 04:20:10;;;;;;;1.45;0.60;;;12.60;99.90;;;;;;4431667;32;20116;-78
2021/09/03 04:22:37;;;;;;;0.50;0.47;;;12.60;99.90;;;;;;4419213;32;20077;-78
2021/09/03 04:25:05;;;;;;;1.90;0.85;;;12.60;99.90;;;;;;4418013;32;20136;-78
2021/09/03 04:27:30;;;;;;;3.15;0.98;;;12.60;99.90;;;;;;4416749;32;20399;-79
2021/09/03 04:29:56;;;;;;;1.20;1.02;;;12.60;99.90;;;;;;4431194;32;20074;-78
2021/09/03 04:32:22;;;;;;;1.58;0.80;;;12.40;99.90;;;;;;4431921;32;20139;-78
2021/09/03 04:34:48;;;;;;;1.33;0.50;;;12.30;99.90;;;;;;4431987;32;20128;-78
2021/09/03 04:37:13;;;;;;;1.92;1.15;;;12.30;99.90;;;;;;4432342;32;20533;-78
2021/09/03 04:42:05;;;;;;;1.60;1.27;;;12.30;99.90;;;;;;4416753;32;20070;-78
2021/09/03 04:44:31;;;;;;;2.70;0.85;;;12.30;99.90;;;;;;4416163;32;20057;-77
2021/09/03 04:46:57;;;;;;;2.62;0.73;;;12.40;99.90;;;;;;4416272;32;20150;-78
2021/09/03 04:49:22;;;;;;;1.73;0.73;;;12.40;99.90;;;;;;4416927;32;20050;-79
2021/09/03 04:51:48;;;;;;;2.78;1.37;;;12.50;99.90;;;;;;4425201;32;20514;-78
2021/09/03 04:54:13;;;;;;;2.37;1.00;;;12.50;99.90;;;;;;4425696;32;20189;-78
2021/09/03 04:56:40;;;;;;;1.27;0.90;;;12.50;99.90;;;;;;4416331;32;20380;-78
2021/09/03 04:59:05;;;;;;;1.55;0.82;;;12.40;99.90;;;;;;4420168;32;20065;-79
2021/09/03 05:01:31;;;;;;;1.15;0.82;;;12.50;99.90;;;;;;4420028;32;20078;-78
2021/09/03 05:03:56;;;;;;;2.62;1.05;;;12.50;99.90;;;;;;4422446;32;20136;-78
2021/09/03 05:06:22;;;;;;;2.05;1.05;;;12.60;99.90;;;;;;4415943;32;20053;-78
2021/09/03 05:08:47;;;;;;;1.50;0.90;;;12.60;99.90;;;;;;4424232;32;20057;-78
2021/09/03 05:11:14;;;;;;;0.73;0.73;;;12.60;99.90;;;;;;4424622;32;20054;-78
2021/09/03 05:13:40;;;;;;;6.70;1.10;;;12.70;99.90;;;;;;4423565;32;20065;-78
2021/09/03 05:16:06;;;;;;;1.00;0.45;;;12.60;99.90;;;;;;4418618;32;20194;-78
2021/09/03 05:18:31;;;;;;;2.17;0.57;;;12.60;99.90;;;;;;4408819;32;20129;-80
2021/09/03 05:20:57;;;;;;;0.82;0.82;;;12.50;99.90;;;;;;4424058;32;20428;-79
2021/09/03 05:23:22;;;;;;;3.03;0.75;;;12.60;99.90;;;;;;4427894;32;20119;-79
2021/09/03 05:25:48;;;;;;;0.50;0.50;;;12.50;99.90;;;;;;4427064;32;20152;-78
2021/09/03 05:28:13;;;;;;;1.80;0.65;;;12.60;99.90;;;;;;4409625;32;20090;-79
2021/09/03 05:30:39;;;;;;;3.83;0.85;;;12.60;99.90;;;;;;4413942;32;20516;-78
2021/09/03 05:33:04;;;;;;;0.88;0.88;;;12.70;99.90;;;;;;4406738;32;20072;-78
2021/09/03 05:35:30;;;;;;;2.95;1.35;;;12.80;99.90;;;;;;4422903;32;20076;-78
2021/09/03 05:37:56;;;;;;;0.50;0.50;;;12.80;99.90;;;;;;4420709;32;20256;-78
2021/09/03 05:40:23;;;;;;;3.03;0.93;;;12.80;99.90;;;;;;4422223;32;20078;-79
2021/09/03 05:42:50;;;;;;;0.50;0.50;;;12.80;99.90;;;;;;4422301;32;20200;-78
2021/09/03 05:45:16;;;;;;;2.17;0.93;;;12.80;99.90;;;;;;4419819;32;20089;-78
2021/09/03 05:47:43;;;;;;;0.75;0.73;;;12.80;99.90;;;;;;4420188;32;20390;-78
2021/09/03 05:50:09;;;;;;;0.50;0.50;;;12.80;99.90;;;;;;4416169;32;20066;-80
2021/09/03 05:52:36;;;;;;;0.62;0.62;;;12.80;99.90;;;;;;4424167;32;20077;-81
2021/09/03 05:55:01;;;;;;;1.00;0.90;;;12.90;99.90;;;;;;4415528;32;20381;-78
2021/09/03 05:57:27;;;;;;;2.30;0.85;;;13.00;99.90;;;;;;4417074;32;20142;-78
2021/09/03 05:59:52;;;;;;;0.40;0.40;;;12.90;99.90;;;;;;4411941;32;21114;-78
2021/09/03 06:02:17;;;;;;;0.75;0.40;;;12.90;99.90;;;;;;4404695;32;20073;-78
2021/09/03 06:04:43;;;;;;;0.70;0.70;;;12.90;99.90;;;;;;4403387;32;20171;-78
2021/09/03 06:07:09;;;;;;;0.45;0.45;;;13.00;99.90;;;;;;4409429;32;20102;-78
2021/09/03 06:09:34;;;;;;;1.77;0.90;;;12.90;99.90;;;;;;4409143;32;20073;-77
2021/09/03 06:12:00;;;;;;;1.55;1.00;;;12.90;99.90;;;;;;4413610;32;20075;-77
2021/09/03 06:14:26;;;;;;;15.95;0.60;;;12.90;99.90;;;;;;4411550;32;20077;-77
2021/09/03 06:16:51;;;;;;;21.02;0.90;;;12.90;99.90;;;;;;4413694;32;20116;-77
2021/09/03 06:19:18;;;;;;;0.75;0.75;;;13.00;99.90;;;;;;4414535;32;20090;-77
2021/09/03 06:21:43;;;;;;;1.25;0.55;;;13.10;99.90;;;;;;4414427;32;20078;-77
2021/09/03 06:24:40;;;;;;;1.15;0.80;;;13.10;99.90;;;;;;4410472;32;75012;-78
2021/09/03 06:26:57;;;;;;;2.30;1.00;;;13.20;99.90;;;;;;4399564;32;20098;-76
2021/09/03 06:29:54;;;;;;;1.70;1.15;;;13.30;99.90;;;;;;4415645;32;20563;-77
2021/09/03 06:32:18;;;;;;;1.00;0.60;;;13.30;99.90;;;;;;4400472;32;20061;-77
2021/09/03 06:34:45;;;;;;;1.10;0.68;;;13.40;99.90;;;;;;4415117;32;20062;-78
2021/09/03 06:37:11;;;;;;;3.62;0.62;;;13.50;99.90;;;;;;4408684;32;20152;-77
2021/09/03 06:39:39;;;;;;;0.57;0.57;;;13.60;99.90;;;;;;4415841;32;20529;-78
2021/09/03 06:42:06;;;;;;;1.60;0.93;;;13.70;99.90;;;;;;4411772;32;20092;-77
2021/09/03 06:44:32;;;;;;;3.00;1.00;;;13.70;99.90;;;;;;4416359;32;20164;-77
2021/09/03 06:46:58;;;;;;;2.55;0.80;;;13.90;99.90;;;;;;4408821;32;20062;-78
2021/09/03 06:49:24;;;;;;;0.75;0.75;;;13.90;99.90;;;;;;4412345;32;20081;-77
2021/09/03 06:51:50;;;;;;;0.80;0.80;;;14.00;99.90;;;;;;4414413;32;20081;-77
2021/09/03 06:54:15;;;;;;;9.15;1.05;;;14.10;99.90;;;;;;4410812;32;20449;-77
2021/09/03 06:56:41;;;;;;;1.60;1.12;;;14.10;99.90;;;;;;4412402;32;20069;-78
2021/09/03 06:59:07;;;;;;;3.03;1.37;;;14.20;99.90;;;;;;4413366;32;20078;-77
2021/09/03 07:01:32;;;;;;;0.75;0.75;;;14.30;99.90;;;;;;4413875;32;20061;-78
2021/09/03 07:03:58;;;;;;;3.78;1.30;;;14.40;99.90;;;;;;4410241;32;20089;-78
2021/09/03 07:06:23;;;;;;;1.27;0.93;;;14.50;99.90;;;;;;4409564;32;20065;-77
2021/09/03 07:08:49;;;;;;;2.67;1.37;;;14.50;99.90;;;;;;4411803;32;20077;-77
2021/09/03 07:11:15;;;;;;;1.75;0.70;;;14.70;99.90;;;;;;4414057;32;20065;-77
2021/09/03 07:13:40;;;;;;;0.73;0.70;;;14.80;99.90;;;;;;4409850;32;20143;-77
2021/09/03 07:16:06;;;;;;;0.75;0.70;;;14.90;99.90;;;;;;4412430;32;20437;-76
2021/09/03 07:18:31;;;;;;;0.70;0.70;;;15.00;99.90;;;;;;4415357;32;20197;-76
2021/09/03 07:20:57;;;;;;;3.33;0.98;;;15.10;99.90;;;;;;4409091;32;20061;-76
2021/09/03 07:23:22;;;;;;;1.77;0.85;;;15.20;99.90;;;;;;4409217;32;20148;-77
2021/09/03 07:25:48;;;;;;;2.20;0.77;;;15.40;99.90;;;;;;4411482;32;20074;-76
2021/09/03 07:28:14;;;;;;;2.37;1.27;;;15.50;99.90;;;;;;4409837;32;20069;-76
2021/09/03 07:30:40;;;;;;;2.40;0.68;;;15.60;99.90;;;;;;4420756;26;20121;-76
2021/09/03 07:33:05;;;;;;;5.85;1.17;;;15.70;99.90;;;;;;4420523;32;20281;-76
2021/09/03 07:35:31;;;;;;;2.10;0.90;;;15.80;99.90;;;;;;4426532;32;20062;-77
2021/09/03 07:37:56;;;;;;;3.78;1.95;;;15.90;99.90;;;;;;4418763;32;20639;-77
2021/09/03 07:40:22;;;;;;;9.00;1.27;;;16.10;99.90;;;;;;4424748;32;20147;-78
2021/09/03 07:42:48;;;;;;;0.85;0.82;;;16.20;99.90;;;;;;4422207;32;20085;-77
2021/09/03 07:45:13;;;;;;;1.23;0.90;;;16.30;99.90;;;;;;4423210;32;20152;-77
2021/09/03 07:47:39;;;;;;;1.05;0.82;;;16.40;99.90;;;;;;4418150;32;20101;-77
2021/09/03 07:50:05;;;;;;;0.50;0.50;;;16.50;99.90;;;;;;4418783;32;20085;-77
2021/09/03 07:52:31;;;;;;;4.30;1.05;;;16.60;99.90;;;;;;4419036;32;20065;-77
2021/09/03 07:54:56;;;;;;;1.55;0.95;;;16.70;99.90;;;;;;4410674;32;20435;-77
2021/09/03 07:57:22;;;;;;;1.17;0.93;;;16.70;99.90;;;;;;4410769;32;20098;-77
2021/09/03 07:59:47;;;;;;;0.70;0.62;;;16.80;99.90;;;;;;4406949;32;20159;-77
2021/09/03 08:02:13;;;;;;;0.40;0.40;;;16.80;99.90;;;;;;4405784;32;20154;-77
2021/09/03 08:04:38;;;;;;;0.50;0.50;;;16.80;99.90;;;;;;4408555;32;20569;-77
2021/09/03 08:07:03;;;;;;;0.43;0.43;;;16.90;99.90;;;;;;4412347;32;20144;-77
2021/09/03 08:09:29;;;;;;;9.85;0.90;;;17.00;99.90;;;;;;4414936;32;20096;-77
2021/09/03 08:11:54;;;;;;;0.60;0.60;;;17.00;99.90;;;;;;4409182;32;20085;-77
2021/09/03 08:14:20;;;;;;;0.47;0.47;;;17.10;99.90;;;;;;4407048;32;20077;-76
2021/09/03 08:16:45;;;;;;;1.67;0.98;;;17.10;99.90;;;;;;4409963;32;20113;-76
2021/09/03 08:19:11;;;;;;;0.90;0.80;;;17.20;99.90;;;;;;4411911;32;20194;-78
2021/09/03 08:21:36;;;;;;;1.10;0.98;;;17.30;99.90;;;;;;4407420;32;20089;-76
2021/09/03 08:24:03;;;;;;;2.75;1.48;;;17.40;99.90;;;;;;4412435;32;20097;-76
2021/09/03 08:26:29;;;;;;;8.10;1.02;;;17.60;99.90;;;;;;4407757;32;20097;-76
2021/09/03 08:28:55;;;;;;;2.47;1.23;;;17.60;99.90;;;;;;4410133;32;20335;-77
2021/09/03 08:31:21;;;;;;;3.37;0.60;;;17.60;99.90;;;;;;4417212;32;20074;-76
2021/09/03 08:33:47;;;;;;;0.60;0.60;;;17.60;99.90;;;;;;4412117;32;20100;-76
2021/09/03 08:36:12;;;;;;;6.32;2.10;;;17.70;99.90;;;;;;4411579;32;20154;-76
2021/09/03 08:38:38;;;;;;;1.08;0.77;;;17.80;99.90;;;;;;4418737;32;20077;-76
2021/09/03 08:41:03;;;;;;;0.57;0.50;;;17.80;99.90;;;;;;4407908;32;20158;-77
2021/09/03 08:43:29;;;;;;;0.50;0.50;;;17.90;99.90;;;;;;4414507;32;20155;-76
2021/09/03 08:45:55;;;;;;;0.50;0.50;;;18.00;99.90;;;;;;4410291;32;20144;-76
2021/09/03 08:48:23;;;;;;;1.58;1.42;;;18.00;99.90;;;;;;4410388;32;20539;-75
2021/09/03 08:50:50;;;;;;;0.93;0.70;;;18.10;99.90;;;;;;4412737;32;20073;-76
2021/09/03 08:53:17;;;;;;;0.68;0.68;;;18.20;99.90;;;;;;4413215;32;20074;-76
2021/09/03 08:55:45;;;;;;;0.62;0.50;;;18.20;99.90;;;;;;4415093;32;20073;-77
2021/09/03 08:58:11;;;;;;;23.12;1.25;;;18.40;99.90;;;;;;4412703;32;20559;-76
2021/09/03 09:00:36;;;;;;;1.23;0.65;;;18.50;99.90;;;;;;4407575;32;20109;-76
2021/09/03 09:03:10;;;;;;;1.45;0.68;;;18.60;99.90;;;;;;4413278;32;20073;-77
2021/09/03 09:05:54;;;;;;;5.57;0.75;;;18.60;99.90;;;;;;4411738;32;20396;-76
2021/09/03 09:08:23;;;;;;;0.73;0.70;;;18.80;99.90;;;;;;4413048;32;20073;-77
2021/09/03 09:10:58;;;;;;;0.43;0.43;;;19.00;99.90;;;;;;4410751;32;20154;-76
2021/09/03 09:13:27;;;;;;;0.47;0.47;;;19.10;99.90;;;;;;4409351;32;20078;-76
2021/09/03 09:16:06;;;;;;;3.72;1.05;;;19.10;99.90;;;;;;4403432;32;20136;-76
2021/09/03 09:18:36;;;;;;;1.90;1.00;;;19.30;99.90;;;;;;4405153;32;20534;-77
2021/09/03 09:21:30;;;;;;;0.88;0.85;;;19.30;99.90;;;;;;4412035;32;20150;-76
2021/09/03 09:23:59;;;;;;;2.15;1.05;;;19.40;99.90;;;;;;4402418;32;20110;-76
2021/09/03 09:26:40;;;;;;;1.45;0.90;;;19.40;99.90;;;;;;4413055;32;20156;-78
2021/09/03 09:29:20;;;;;;;0.57;0.57;;;19.50;99.90;;;;;;4417845;32;20097;-78
2021/09/03 09:31:48;;;;;;;1.55;0.82;;;19.80;99.90;;;;;;4418623;32;20578;-81
2021/09/03 09:34:17;;;;;;;1.12;1.10;;;19.70;99.90;;;;;;4425606;32;20550;-82
2021/09/03 09:36:43;;;;;;;1.55;0.57;;;19.70;99.90;;;;;;4425954;32;20510;-82
2021/09/03 09:39:08;;;;;;;1.27;0.60;;;19.70;99.90;;;;;;4422776;32;20106;-82
2021/09/03 09:41:35;;;;;;;0.40;0.40;;;19.90;99.90;;;;;;4422381;32;20078;-84
2021/09/03 09:44:01;;;;;;;0.80;0.80;;;20.10;99.90;;;;;;4425298;32;20123;-81
2021/09/03 09:46:29;;;;;;;0.60;0.60;;;20.20;99.90;;;;;;4425847;32;20518;-80
2021/09/03 09:49:02;;;;;;;0.90;0.47;;;20.20;99.90;;;;;;4421902;32;20065;-78
2021/09/03 09:51:33;;;;;;;0.77;0.60;;;20.40;99.90;;;;;;4420089;32;20078;-80
2021/09/03 09:54:11;;;;;;;1.17;1.05;;;20.70;99.90;;;;;;4406066;32;20533;-80
2021/09/03 09:56:41;;;;;;;3.08;0.75;;;20.90;99.90;;;;;;4422172;32;20061;-80
2021/09/03 09:59:09;;;;;;;1.33;1.23;;;21.00;99.90;;;;;;4423515;32;20132;-81
2021/09/03 10:01:38;;;;;;;0.43;0.43;;;20.90;99.90;;;;;;4423935;32;20140;-82
2021/09/03 10:04:07;;;;;;;1.25;0.82;;;21.00;99.90;;;;;;4424538;32;20081;-79
2021/09/03 10:06:35;;;;;;;0.37;0.37;;;21.20;99.90;;;;;;4422225;32;20065;-81
2021/09/03 10:09:03;;;;;;;2.62;1.23;;;21.40;99.90;;;;;;4427628;32;20148;-80
2021/09/03 10:11:30;;;;;;;0.65;0.65;;;21.40;99.90;;;;;;4419001;32;20065;-81
2021/09/03 10:14:02;;;;;;;0.85;0.52;;;21.30;99.90;;;;;;4424082;32;20146;-80
2021/09/03 10:16:28;;;;;;;0.30;0.30;;;21.30;99.90;;;;;;4418782;32;20096;-76
2021/09/03 10:18:57;;;;;;;1.10;0.55;;;21.30;99.90;;;;;;4418797;32;20109;-75
2021/09/03 10:21:25;;;;;;;0.50;0.50;;;21.30;99.90;;;;;;4414323;32;20082;-76
2021/09/03 10:23:57;;;;;;;0.65;0.45;;;21.40;99.90;;;;;;4417691;32;20563;-76
2021/09/03 10:26:25;;;;;;;0.60;0.60;;;21.40;99.90;;;;;;4413240;32;20076;-77
2021/09/03 10:29:12;;;;;;;0.47;0.47;;;21.60;99.90;;;;;;4414555;32;20061;-77
2021/09/03 10:32:06;;;;;;;0.40;0.40;;;21.80;99.90;;;;;;4415792;32;20165;-75
2021/09/03 10:34:54;;;;;;;0.40;0.40;;;22.00;99.90;;;;;;4403929;32;20097;-78
2021/09/03 10:37:22;;;;;;;3.97;1.17;;;22.10;99.90;;;;;;4414523;32;20138;-77
2021/09/03 10:39:57;;;;;;;0.40;0.37;;;22.40;99.90;;;;;;4420900;32;20080;-76
2021/09/03 10:42:49;;;;;;;0.90;0.73;;;22.40;99.90;;;;;;4414507;32;20393;-77
2021/09/03 10:45:36;;;;;;;0.30;0.30;;;22.60;99.90;;;;;;4419272;32;20162;-76
2021/09/03 10:48:07;;;;;;;0.40;0.40;;;22.80;99.90;;;;;;4404168;32;20149;-76
2021/09/03 10:50:55;;;;;;;0.50;0.50;;;23.00;99.90;;;;;;4417659;32;20089;-76
2021/09/03 10:53:27;;;;;;;0.32;0.32;;;23.20;99.90;;;;;;4408077;32;20170;-76
2021/09/03 10:56:17;;;;;;;1.12;0.70;;;23.20;99.90;;;;;;4414728;32;20082;-76
2021/09/03 10:58:49;;;;;;;0.77;0.50;;;23.30;99.90;;;;;;4418171;32;20061;-77
2021/09/03 11:01:26;;;;;;;0.60;0.43;;;23.50;99.90;;;;;;4416979;32;20080;-77
2021/09/03 11:04:14;;;;;;;3.72;0.85;;;23.60;99.90;;;;;;4417246;32;20085;-77
2021/09/03 11:06:47;;;;;;;0.20;0.20;;;23.70;99.90;;;;;;4404368;32;20077;-77
2021/09/03 11:09:18;;;;;;;2.20;0.90;;;23.60;99.90;;;;;;4417594;32;20082;-78
2021/09/03 11:11:45;;;;;;;1.27;0.73;;;23.90;99.90;;;;;;4415825;32;20136;-77
2021/09/03 11:14:14;;;;;;;0.28;0.28;;;23.80;99.90;;;;;;4420350;32;20216;-77
2021/09/03 11:16:44;;;;;;;4.57;0.50;;;24.20;99.90;;;;;;4416650;32;20077;-77
2021/09/03 11:19:11;;;;;;;;;;;24.30;99.90;;;;;;4414055;32;20062;-77
2021/09/03 11:21:43;;;;;;;0.45;0.45;;;24.30;99.90;;;;;;4420867;32;20008;-77
2021/09/03 11:24:11;;;;;;;1.17;1.05;;;24.20;99.90;;;;;;4421037;32;20391;-77
2021/09/03 11:26:38;;;;;;;1.02;0.40;;;24.50;99.90;;;;;;4414019;32;20088;-76
2021/09/03 11:29:07;;;;;;;0.20;0.20;;;24.40;99.90;;;;;;4419646;32;20069;-77
2021/09/03 11:31:34;;;;;;;1.02;0.30;;;24.70;99.90;;;;;;4420540;32;20106;-77
2021/09/03 11:34:05;;;;;;;0.15;0.15;;;25.00;99.90;;;;;;4416542;32;20058;-77
2021/09/03 11:36:45;;;;;;;1.50;0.70;;;24.80;99.90;;;;;;4412432;32;20710;-78
2021/09/03 11:39:15;;;;;;;0.15;0.15;;;24.70;99.90;;;;;;4419824;32;20062;-77
2021/09/03 11:41:49;;;;;;;0.80;0.45;;;25.10;99.90;;;;;;4420425;32;20546;-76
2021/09/03 11:44:16;;;;;;;0.10;0.10;;;25.30;99.90;;;;;;4412847;32;20073;-76
2021/09/03 11:46:41;;;;;;;0.30;0.30;;;25.60;99.90;;;;;;4409874;32;20807;-78
2021/09/03 11:49:07;;;;;;;1.62;0.90;;;25.70;99.90;;;;;;4409762;32;20175;-77
2021/09/03 11:51:34;;;;;;;0.32;0.32;;;25.90;99.90;;;;;;4412407;32;20469;-81
2021/09/03 11:54:00;;;;;;;0.47;0.47;;;25.90;99.90;;;;;;4424516;32;20091;-82
2021/09/03 11:56:27;;;;;;;0.08;0.08;;;25.90;99.30;;;;;;4418341;32;20090;-82
2021/09/03 11:58:52;;;;;;;0.10;0.10;;;26.20;99.70;;;;;;4420659;32;20073;-82
2021/09/03 12:01:21;;;;;;;0.47;0.47;;;26.20;99.70;;;;;;4424458;32;20385;-84
2021/09/03 12:03:48;;;;;;;0.25;0.25;;;26.20;99.80;;;;;;4419309;32;20066;-83
2021/09/03 12:06:17;;;;;;;0.17;0.17;;;26.30;99.50;;;;;;4419549;32;20090;-82
2021/09/03 12:08:45;;;;;;;1.05;0.60;;;26.60;99.10;;;;;;4421241;32;20522;-84
2021/09/03 12:11:14;;;;;;;4.47;0.40;;;26.70;99.70;;;;;;4424687;32;20122;-82
2021/09/03 12:13:43;;;;;;;2.03;0.50;;;27.00;98.10;;;;;;4424185;32;20140;-82
2021/09/03 12:16:22;;;;;;;1.02;0.57;;;26.70;97.50;;;;;;4420637;32;20078;-83
2021/09/03 12:18:52;;;;;;;0.10;0.10;;;27.20;97.50;;;;;;4423245;32;20161;-82
2021/09/03 12:21:21;;;;;;;0.20;0.20;;;27.40;97.10;;;;;;4423590;32;20109;-83
2021/09/03 12:23:58;;;;;;;0.40;0.35;;;27.70;96.90;;;;;;4421518;32;20062;-81
2021/09/03 12:26:34;;;;;;;0.20;0.20;;;27.80;97.30;;;;;;4420004;32;20081;-82
2021/09/03 12:29:00;;;;;;;0.35;0.35;;;27.70;96.90;;;;;;4425124;32;20173;-81
2021/09/03 12:31:28;;;;;;;0.70;0.22;;;27.80;96.10;;;;;;4418485;32;20086;-82
2021/09/03 12:33:55;;;;;;;0.95;0.55;;;28.10;95.70;;;;;;4420067;32;20074;-81
2021/09/03 12:36:23;;;;;;;0.37;0.37;;;28.20;96.20;;;;;;4423848;32;20146;-82
2021/09/03 12:38:53;;;;;;;0.30;0.28;;;28.30;95.20;;;;;;4426062;32;20155;-81
2021/09/03 12:41:21;;;;;;;0.65;0.37;;;28.30;95.30;;;;;;4430056;32;20080;-82
2021/09/03 12:43:50;;;;;;;1.30;0.40;;;28.50;94.40;;;;;;4427287;32;20078;-82
2021/09/03 12:46:17;;;;;;;0.28;0.28;;;28.50;94.00;;;;;;4426655;32;20109;-82
2021/09/03 12:48:47;;;;;;;0.40;0.40;;;28.50;94.20;;;;;;4428614;32;20085;-82
2021/09/03 12:51:21;;;;;;;0.45;0.40;;;29.00;93.50;;;;;;4427612;32;20100;-80